Time;durP1;ratioP1;P1;durP2;ratioP2;P2;SDS_P1;SDS_P2;PMS_P1;PMS_P2;Temp;Humidity;BMP_temperature;BMP_pressure;BME280_temperature;BME280_humidity;BME280_pressure;Samples;Min_cycle;Max_cycle;Signal;HPM_P1;HPM_P2
2021/10/17 00:01:25;;;;;;;8.45;1.80;;;;;;;7.38;100.00;101781.19;4954920;28;20840;-73
2021/10/17 00:03:51;;;;;;;12.93;2.75;;;;;;;7.35;100.00;101789.25;4964662;28;20081;-76
2021/10/17 00:06:17;;;;;;;7.53;2.00;;;;;;;7.26;100.00;101776.78;4963789;28;20043;-73
2021/10/17 00:08:43;;;;;;;8.25;2.13;;;;;;;7.15;100.00;101777.47;4953149;28;20081;-73
2021/10/17 00:11:09;;;;;;;10.95;2.30;;;;;;;7.09;100.00;101780.47;4953319;28;20039;-73
2021/10/17 00:13:36;;;;;;;11.10;2.10;;;;;;;7.10;100.00;101775.19;4959788;28;20045;-73
2021/10/17 00:16:02;;;;;;;9.40;1.92;;;;;;;7.14;100.00;101774.03;4920148;29;20039;-75
2021/10/17 00:18:27;;;;;;;10.43;2.05;;;;;;;7.13;100.00;101776.75;4926021;28;20444;-74
2021/10/17 00:20:53;;;;;;;10.00;2.13;;;;;;;7.08;100.00;101768.38;4967216;28;20034;-74
2021/10/17 00:23:19;;;;;;;7.25;2.13;;;;;;;7.05;100.00;101771.19;4948324;28;20043;-74
2021/10/17 00:25:44;;;;;;;9.25;2.42;;;;;;;7.03;100.00;101771.28;4937568;28;20141;-76
2021/10/17 00:28:10;;;;;;;10.20;2.50;;;;;;;6.98;100.00;101771.56;4933039;28;20038;-74
2021/10/17 00:30:40;;;;;;;12.75;2.35;;;;;;;7.06;100.00;101762.41;4925364;28;20058;-73
2021/10/17 00:33:07;;;;;;;10.10;2.33;;;;;;;7.00;100.00;101769.69;4937452;28;20763;-73
2021/10/17 00:35:33;;;;;;;8.38;2.03;;;;;;;7.01;100.00;101767.94;4928418;28;20038;-73
2021/10/17 00:37:59;;;;;;;12.82;2.75;;;;;;;6.96;100.00;101768.22;4942927;28;20121;-74
2021/10/17 00:40:24;;;;;;;12.82;2.58;;;;;;;6.93;100.00;101757.13;4937528;28;20117;-73
2021/10/17 00:42:50;;;;;;;5.60;2.05;;;;;;;6.91;100.00;101754.66;4944644;28;20027;-74
2021/10/17 00:45:19;;;;;;;11.27;2.63;;;;;;;7.01;100.00;101754.91;4922859;28;20092;-74
2021/10/17 00:47:45;;;;;;;12.82;2.78;;;;;;;6.98;100.00;101750.69;4933080;28;20038;-74
2021/10/17 00:50:12;;;;;;;6.25;2.17;;;;;;;7.05;100.00;101753.75;4949161;28;20037;-74
2021/10/17 00:52:40;;;;;;;15.20;2.58;;;;;;;7.11;100.00;101753.34;4927398;28;20505;-74
2021/10/17 00:55:06;;;;;;;10.57;2.08;;;;;;;7.14;100.00;101747.94;4950856;28;20030;-74
2021/10/17 00:57:33;;;;;;;11.48;2.78;;;;;;;7.15;100.00;101741.78;4957768;28;20488;-75
2021/10/17 00:59:59;;;;;;;9.48;2.38;;;;;;;7.18;100.00;101748.59;4947136;28;20034;-74
2021/10/17 01:02:27;;;;;;;13.15;2.20;;;;;;;7.29;100.00;101738.28;4950861;28;20798;-75
2021/10/17 01:04:52;;;;;;;6.95;2.20;;;;;;;7.36;98.67;101738.69;4936076;28;20050;-75
2021/10/17 01:07:18;;;;;;;12.38;2.20;;;;;;;7.48;94.28;101740.50;4950417;28;20035;-74
2021/10/17 01:09:43;;;;;;;9.75;1.88;;;;;;;7.45;100.00;101734.66;4962444;28;20097;-73
2021/10/17 01:12:13;;;;;;;10.73;2.28;;;;;;;7.52;98.90;101734.16;4951913;28;20034;-73
2021/10/17 01:14:38;;;;;;;14.10;1.90;;;;;;;7.48;100.00;101739.66;4952518;28;20035;-72
2021/10/17 01:17:04;;;;;;;12.77;2.60;;;;;;;7.52;97.41;101730.72;4905415;29;20102;-74
2021/10/17 01:19:29;;;;;;;6.25;2.03;;;;;;;7.45;100.00;101730.25;4923531;28;20404;-73
2021/10/17 01:22:04;;;;;;;10.00;1.83;;;;;;;7.30;100.00;101736.50;4947767;28;20177;-74
2021/10/17 01:24:30;;;;;;;11.13;3.00;;;;;;;7.22;100.00;101737.00;4949522;28;20046;-73
2021/10/17 01:26:56;;;;;;;10.95;2.38;;;;;;;7.17;100.00;101741.69;4919633;28;20047;-71
2021/10/17 01:29:21;;;;;;;7.93;2.03;;;;;;;7.07;100.00;101733.63;4905041;28;20035;-75
2021/10/17 01:31:52;;;;;;;11.23;2.50;;;;;;;7.05;100.00;101732.06;4929306;28;20049;-75
2021/10/17 01:34:19;;;;;;;10.77;2.20;;;;;;;6.95;100.00;101730.03;4945235;28;20035;-73
2021/10/17 01:36:45;;;;;;;9.85;2.42;;;;;;;7.06;100.00;101731.09;4918203;28;20049;-72
2021/10/17 01:39:14;;;;;;;11.02;2.20;;;;;;;7.16;100.00;101719.97;4900057;29;20090;-73
2021/10/17 01:41:40;;;;;;;12.35;2.65;;;;;;;7.28;100.00;101722.72;4915394;28;20050;-71
2021/10/17 01:44:28;;;;;;;11.68;2.63;;;;;;;7.28;100.00;101714.88;4929950;28;20034;-73
2021/10/17 01:46:55;;;;;;;11.43;2.47;;;;;;;7.24;100.00;101716.88;4915588;28;20030;-73
2021/10/17 01:49:23;;;;;;;10.43;2.55;;;;;;;7.19;100.00;101718.94;4929088;28;20043;-72
2021/10/17 01:51:50;;;;;;;14.00;3.22;;;;;;;7.14;100.00;101715.78;4930905;28;20042;-74
2021/10/17 01:54:15;;;;;;;12.57;3.22;;;;;;;7.16;100.00;101724.38;4945965;28;20061;-74
2021/10/17 01:56:42;;;;;;;11.35;2.90;;;;;;;7.30;100.00;101713.00;4947577;28;20053;-71
2021/10/17 01:59:07;;;;;;;12.15;2.53;;;;;;;7.32;100.00;101711.13;4944999;28;20520;-75
2021/10/17 02:01:45;;;;;;;8.43;2.85;;;;;;;7.35;100.00;101705.72;4942654;28;20054;-72
2021/10/17 02:04:11;;;;;;;13.82;3.10;;;;;;;7.37;100.00;101709.91;4943482;28;20396;-71
2021/10/17 02:06:37;;;;;;;11.45;2.92;;;;;;;7.38;100.00;101701.13;4934048;28;20054;-74
2021/10/17 02:09:03;;;;;;;9.65;2.97;;;;;;;7.37;100.00;101703.84;4922192;29;20042;-73
2021/10/17 02:11:29;;;;;;;10.05;2.70;;;;;;;7.30;100.00;101703.41;4914592;28;20039;-74
2021/10/17 02:13:56;;;;;;;11.90;3.05;;;;;;;7.28;100.00;101694.00;4923182;28;20042;-74
2021/10/17 02:16:21;;;;;;;15.70;3.15;;;;;;;7.28;100.00;101700.06;4931869;28;20043;-75
2021/10/17 02:18:50;;;;;;;10.65;2.53;;;;;;;7.30;100.00;101694.75;4918498;28;20564;-75
2021/10/17 02:21:16;;;;;;;13.15;3.35;;;;;;;7.30;100.00;101692.13;4958154;28;20034;-75
2021/10/17 02:23:43;;;;;;;11.68;3.00;;;;;;;7.27;100.00;101692.31;4937445;28;20448;-74
2021/10/17 02:26:08;;;;;;;12.65;2.67;;;;;;;7.24;100.00;101687.34;4932487;28;20038;-74
2021/10/17 02:28:59;;;;;;;11.98;2.90;;;;;;;7.11;100.00;101685.50;4966022;28;20046;-75
2021/10/17 02:31:27;;;;;;;16.08;2.97;;;;;;;7.14;100.00;101692.28;4949809;28;20046;-72
2021/10/17 02:33:54;;;;;;;8.93;3.00;;;;;;;7.10;100.00;101680.38;4930445;29;20043;-73
2021/10/17 02:36:19;;;;;;;15.05;3.33;;;;;;;7.00;100.00;101688.81;4930967;29;20398;-75
2021/10/17 02:38:45;;;;;;;17.52;3.38;;;;;;;7.10;100.00;101685.63;4923083;28;20039;-73
2021/10/17 02:41:11;;;;;;;12.32;3.25;;;;;;;7.12;100.00;101691.56;4934849;28;20035;-75
2021/10/17 02:43:37;;;;;;;14.57;3.13;;;;;;;7.09;100.00;101689.19;4935624;29;20050;-74
2021/10/17 02:46:02;;;;;;;11.98;3.50;;;;;;;7.13;100.00;101685.41;4928054;28;20039;-72
2021/10/17 02:48:30;;;;;;;9.05;3.10;;;;;;;7.21;100.00;101684.00;4925677;28;20043;-73
2021/10/17 02:50:59;;;;;;;11.50;4.00;;;;;;;7.22;100.00;101682.22;4934872;28;20150;-75
2021/10/17 02:53:25;;;;;;;16.13;3.63;;;;;;;7.32;100.00;101687.66;4948788;28;20038;-75
2021/10/17 02:55:51;;;;;;;13.98;3.22;;;;;;;7.41;100.00;101685.25;4938848;28;20031;-75
2021/10/17 02:58:17;;;;;;;13.15;3.35;;;;;;;7.51;100.00;101682.84;4936599;28;20043;-75
2021/10/17 03:00:44;;;;;;;12.30;3.25;;;;;;;7.47;100.00;101681.41;4936787;28;20038;-74
2021/10/17 03:03:09;;;;;;;9.55;3.10;;;;;;;7.35;100.00;101685.66;4924260;28;20046;-72
2021/10/17 03:05:41;;;;;;;15.15;3.47;;;;;;;7.34;100.00;101673.53;4936930;28;20033;-75
2021/10/17 03:08:07;;;;;;;15.98;3.78;;;;;;;7.22;100.00;101674.38;4956374;28;20039;-75
2021/10/17 03:10:32;;;;;;;16.20;3.80;;;;;;;7.24;100.00;101680.34;4939465;28;20431;-74
2021/10/17 03:12:58;;;;;;;14.05;3.70;;;;;;;7.22;100.00;101669.16;4954708;28;20036;-75
2021/10/17 03:15:23;;;;;;;18.17;4.00;;;;;;;7.13;100.00;101664.53;4972330;28;20042;-74
2021/10/17 03:17:49;;;;;;;10.43;3.85;;;;;;;7.11;100.00;101671.66;4937647;28;20559;-75
2021/10/17 03:20:14;;;;;;;13.85;4.07;;;;;;;7.07;100.00;101671.00;4955295;28;20038;-75
2021/10/17 03:22:44;;;;;;;15.20;3.95;;;;;;;7.09;100.00;101670.91;4936726;29;20106;-75
2021/10/17 03:25:09;;;;;;;18.23;4.30;;;;;;;7.02;100.00;101668.69;4949137;28;20130;-75
2021/10/17 03:27:36;;;;;;;13.75;4.55;;;;;;;7.02;100.00;101675.69;4936651;28;20039;-75
2021/10/17 03:30:04;;;;;;;11.70;4.15;;;;;;;7.06;100.00;101673.72;4938710;28;20030;-73
2021/10/17 03:32:30;;;;;;;16.10;4.95;;;;;;;7.08;100.00;101674.44;4965814;28;20031;-75
2021/10/17 03:34:55;;;;;;;18.60;4.47;;;;;;;7.06;100.00;101676.31;4954592;28;20477;-74
2021/10/17 03:37:21;;;;;;;14.57;4.80;;;;;;;7.08;100.00;101669.22;4970297;28;20110;-75
2021/10/17 03:39:50;;;;;;;16.30;4.60;;;;;;;7.06;100.00;101677.16;4954918;28;20101;-74
2021/10/17 03:42:16;;;;;;;20.58;5.10;;;;;;;7.09;100.00;101669.13;4938142;28;20046;-74
2021/10/17 03:44:42;;;;;;;15.73;5.18;;;;;;;7.04;100.00;101678.19;4938521;28;20035;-76
2021/10/17 03:47:08;;;;;;;18.65;5.18;;;;;;;6.99;100.00;101668.91;4938393;28;20054;-73
2021/10/17 03:49:34;;;;;;;16.95;4.85;;;;;;;7.01;100.00;101671.41;4952269;28;20051;-74
2021/10/17 03:52:00;;;;;;;17.85;4.88;;;;;;;7.02;100.00;101667.84;4952110;28;20496;-74
2021/10/17 03:54:25;;;;;;;18.95;4.72;;;;;;;7.01;100.00;101674.03;4943636;28;20043;-75
2021/10/17 03:56:51;;;;;;;18.83;4.88;;;;;;;7.01;100.00;101672.25;4953758;28;20038;-74
2021/10/17 03:59:17;;;;;;;16.00;4.97;;;;;;;7.01;100.00;101667.03;4938634;28;20038;-75
2021/10/17 04:01:45;;;;;;;16.67;4.63;;;;;;;6.97;100.00;101668.16;4970651;28;20496;-75
2021/10/17 04:04:12;;;;;;;15.73;5.40;;;;;;;6.94;100.00;101665.75;4941047;28;20070;-75
2021/10/17 04:06:38;;;;;;;15.68;5.20;;;;;;;6.92;100.00;101672.84;4937835;28;20489;-74
2021/10/17 04:09:12;;;;;;;17.83;5.88;;;;;;;6.89;100.00;101687.84;4949967;29;20086;-74
2021/10/17 04:11:40;;;;;;;15.75;5.50;;;;;;;6.85;100.00;101675.94;4919556;29;20042;-75
2021/10/17 04:14:05;;;;;;;14.77;4.68;;;;;;;6.83;100.00;101683.88;4943341;28;20041;-74
2021/10/17 04:16:31;;;;;;;18.77;4.60;;;;;;;6.76;100.00;101680.84;4938138;28;20111;-75
2021/10/17 04:18:58;;;;;;;19.42;5.15;;;;;;;6.70;100.00;101683.81;4945565;28;20042;-73
2021/10/17 04:21:23;;;;;;;21.08;4.80;;;;;;;6.62;100.00;101681.69;4936777;28;20030;-74
2021/10/17 04:23:49;;;;;;;20.02;4.72;;;;;;;6.57;100.00;101680.31;4950833;28;20044;-75
2021/10/17 04:26:14;;;;;;;19.63;5.20;;;;;;;6.50;100.00;101677.28;4920711;28;20129;-74
2021/10/17 04:28:44;;;;;;;17.13;4.75;;;;;;;6.45;100.00;101675.91;4956467;28;20035;-75
2021/10/17 04:31:10;;;;;;;15.20;4.95;;;;;;;6.37;100.00;101674.59;4937407;28;20700;-73
2021/10/17 04:33:36;;;;;;;11.05;4.88;;;;;;;6.33;100.00;101678.34;4943286;29;20517;-75
2021/10/17 04:36:01;;;;;;;17.20;5.47;;;;;;;6.31;100.00;101669.78;4927989;28;20065;-75
2021/10/17 04:38:27;;;;;;;16.50;5.68;;;;;;;6.24;100.00;101674.53;4937441;28;20061;-75
2021/10/17 04:40:52;;;;;;;19.08;5.25;;;;;;;6.23;100.00;101696.31;4937634;28;20046;-75
2021/10/17 04:43:18;;;;;;;17.30;5.03;;;;;;;6.23;100.00;101685.03;4959364;28;20039;-75
2021/10/17 04:45:43;;;;;;;15.18;5.38;;;;;;;6.23;100.00;101685.91;4942366;28;20042;-74
2021/10/17 04:48:11;;;;;;;17.75;5.75;;;;;;;6.35;100.00;101688.69;4940329;28;20034;-75
2021/10/17 04:50:36;;;;;;;18.83;5.47;;;;;;;6.37;100.00;101679.00;4956487;28;20119;-75
2021/10/17 04:53:02;;;;;;;25.10;6.20;;;;;;;6.42;100.00;101687.34;4957379;28;20035;-74
2021/10/17 04:55:28;;;;;;;19.45;6.00;;;;;;;6.48;100.00;101683.50;4946214;28;20106;-74
2021/10/17 04:57:54;;;;;;;18.05;5.45;;;;;;;6.50;100.00;101682.50;4927559;28;20145;-74
2021/10/17 05:00:22;;;;;;;21.15;5.47;;;;;;;6.56;100.00;101682.09;4950047;28;20043;-74
2021/10/17 05:02:58;;;;;;;14.82;5.55;;;;;;;6.60;100.00;101694.00;4947500;28;20559;-74
2021/10/17 05:05:23;;;;;;;16.17;6.40;;;;;;;6.62;100.00;101691.31;4964501;28;20030;-74
2021/10/17 05:07:50;;;;;;;15.52;5.80;;;;;;;6.67;100.00;101688.38;4936689;28;20113;-73
2021/10/17 05:10:16;;;;;;;18.70;5.88;;;;;;;6.70;100.00;101688.19;4953165;28;20070;-74
2021/10/17 05:12:42;;;;;;;18.67;5.38;;;;;;;6.72;100.00;101688.94;4934711;29;20129;-75
2021/10/17 05:15:07;;;;;;;20.15;5.90;;;;;;;6.74;100.00;101698.34;4933493;29;20045;-75
2021/10/17 05:17:34;;;;;;;17.08;5.38;;;;;;;6.73;100.00;101694.06;4933630;28;20049;-75
2021/10/17 05:20:00;;;;;;;21.85;5.80;;;;;;;6.73;100.00;101686.25;4953197;28;20038;-75
2021/10/17 05:22:27;;;;;;;16.38;5.78;;;;;;;6.75;100.00;101692.19;4920274;28;20039;-75
2021/10/17 05:24:53;;;;;;;14.15;5.75;;;;;;;6.76;100.00;101686.06;4953043;28;20407;-73
2021/10/17 05:27:19;;;;;;;24.65;5.70;;;;;;;6.78;100.00;101691.16;4936807;28;20062;-74
2021/10/17 05:29:45;;;;;;;22.50;6.25;;;;;;;6.81;100.00;101693.56;4936974;28;20049;-72
2021/10/17 05:32:11;;;;;;;15.35;5.28;;;;;;;6.80;100.00;101699.72;4917091;29;20721;-74
2021/10/17 05:34:37;;;;;;;11.35;5.20;;;;;;;6.82;100.00;101703.06;4921066;28;20046;-75
2021/10/17 05:37:02;;;;;;;17.15;5.30;;;;;;;6.85;100.00;101702.03;4951927;28;20037;-72
2021/10/17 05:39:28;;;;;;;16.05;6.25;;;;;;;6.83;100.00;101699.50;4936581;28;20046;-70
2021/10/17 05:41:54;;;;;;;16.50;5.85;;;;;;;6.81;100.00;101696.19;4929475;29;20062;-71
2021/10/17 05:44:20;;;;;;;10.48;5.22;;;;;;;6.83;100.00;101707.34;4932851;29;20042;-74
2021/10/17 05:46:46;;;;;;;23.02;5.95;;;;;;;6.80;100.00;101697.13;4918771;29;20050;-71
2021/10/17 05:49:12;;;;;;;15.45;5.97;;;;;;;6.83;100.00;101710.78;4933218;29;20031;-75
2021/10/17 05:51:37;;;;;;;17.75;6.13;;;;;;;6.85;100.00;101715.91;4942273;28;20061;-75
2021/10/17 05:54:03;;;;;;;19.92;5.50;;;;;;;6.85;100.00;101721.13;4949945;28;20034;-74
2021/10/17 05:56:29;;;;;;;22.02;6.28;;;;;;;6.86;100.00;101719.38;4947462;28;20038;-72
2021/10/17 05:58:54;;;;;;;16.67;6.18;;;;;;;6.88;100.00;101725.31;4952577;28;20035;-75
2021/10/17 06:01:20;;;;;;;20.83;6.85;;;;;;;6.91;100.00;101738.16;4935437;28;20129;-74
2021/10/17 06:04:00;;;;;;;16.48;5.88;;;;;;;6.93;100.00;101738.88;4951288;28;20042;-75
2021/10/17 06:06:43;;;;;;;18.15;6.93;;;;;;;6.93;100.00;101726.69;4981985;28;20125;-74
2021/10/17 06:09:11;;;;;;;16.90;5.68;;;;;;;6.97;100.00;101732.56;4929965;28;20034;-76
2021/10/17 06:11:40;;;;;;;20.17;5.57;;;;;;;7.03;100.00;101739.97;4935901;28;20069;-73
2021/10/17 06:14:06;;;;;;;18.92;5.95;;;;;;;7.05;100.00;101732.06;4951813;28;20412;-74
2021/10/17 06:16:32;;;;;;;16.02;5.50;;;;;;;7.07;100.00;101733.63;4934916;28;20041;-74
2021/10/17 06:18:58;;;;;;;19.40;6.43;;;;;;;7.15;100.00;101738.34;4950967;28;20042;-74
2021/10/17 06:21:24;;;;;;;16.98;5.93;;;;;;;7.17;100.00;101745.13;4951326;28;20031;-73
2021/10/17 06:23:50;;;;;;;15.10;5.75;;;;;;;7.22;100.00;101755.28;4948169;28;20045;-73
2021/10/17 06:26:16;;;;;;;18.25;6.72;;;;;;;7.25;100.00;101749.00;4938489;28;20042;-75
2021/10/17 06:28:41;;;;;;;14.65;6.53;;;;;;;7.25;100.00;101751.63;4933885;28;20447;-75
2021/10/17 06:31:07;;;;;;;21.23;7.15;;;;;;;7.25;100.00;101749.84;4960579;28;20035;-73
2021/10/17 06:33:37;;;;;;;16.20;6.88;;;;;;;7.31;100.00;101757.28;4947437;28;20556;-75
2021/10/17 06:36:04;;;;;;;16.73;6.97;;;;;;;7.31;100.00;101746.84;4955255;28;20045;-74
2021/10/17 06:38:29;;;;;;;17.55;5.95;;;;;;;7.39;100.00;101754.16;4952520;28;20496;-70
2021/10/17 06:40:55;;;;;;;15.98;6.78;;;;;;;7.43;100.00;101755.63;4960192;28;20164;-75
2021/10/17 06:43:21;;;;;;;17.45;6.57;;;;;;;7.49;100.00;101751.78;4954391;28;20034;-75
2021/10/17 06:46:07;;;;;;;21.58;6.95;;;;;;;7.54;100.00;101753.16;4960446;28;20047;-73
2021/10/17 06:48:34;;;;;;;20.20;6.88;;;;;;;7.57;100.00;101752.09;4932287;28;20031;-74
2021/10/17 06:51:00;;;;;;;21.77;7.28;;;;;;;7.61;100.00;101764.03;4934301;28;20050;-74
2021/10/17 06:53:26;;;;;;;15.55;6.80;;;;;;;7.62;100.00;101764.88;4946843;28;20097;-75
2021/10/17 06:55:53;;;;;;;13.85;6.45;;;;;;;7.63;100.00;101767.38;4951353;28;20035;-74
2021/10/17 06:58:20;;;;;;;15.95;6.25;;;;;;;7.63;100.00;101762.16;4951893;28;20075;-71
2021/10/17 07:00:46;;;;;;;16.80;6.80;;;;;;;7.66;100.00;101758.50;4947294;28;20064;-71
2021/10/17 07:03:12;;;;;;;12.63;5.97;;;;;;;7.70;100.00;101767.78;4969162;28;20035;-75
2021/10/17 07:05:57;;;;;;;15.90;6.97;;;;;;;7.73;100.00;101772.81;4936696;29;20124;-74
2021/10/17 07:08:26;;;;;;;20.40;7.15;;;;;;;7.74;100.00;101762.28;4946844;28;20411;-74
2021/10/17 07:10:51;;;;;;;24.17;7.50;;;;;;;7.80;100.00;101759.25;4937073;28;20125;-73
2021/10/17 07:13:47;;;;;;;19.50;7.32;;;;;;;7.92;100.00;101754.13;4932449;28;20050;-72
2021/10/17 07:16:15;;;;;;;28.08;8.07;;;;;;;8.09;100.00;101740.72;4952259;28;20039;-75
2021/10/17 07:18:41;;;;;;;23.58;7.78;;;;;;;8.17;100.00;101743.69;4948466;29;20038;-73
2021/10/17 07:21:07;;;;;;;22.98;7.80;;;;;;;8.19;100.00;101754.00;4935432;28;20730;-74
2021/10/17 07:23:33;;;;;;;20.35;7.40;;;;;;;8.26;100.00;101750.03;4932637;28;20069;-74
2021/10/17 07:25:58;;;;;;;14.38;7.13;;;;;;;8.28;100.00;101747.31;4951362;28;20109;-75
2021/10/17 07:28:24;;;;;;;19.73;6.90;;;;;;;8.30;100.00;101756.69;4939182;28;20781;-75
2021/10/17 07:30:59;;;;;;;22.92;8.32;;;;;;;8.36;100.00;101771.13;4950338;28;20456;-73
2021/10/17 07:33:28;;;;;;;18.85;7.38;;;;;;;8.35;100.00;101757.22;4951954;28;20038;-74
2021/10/17 07:35:56;;;;;;;16.02;7.55;;;;;;;8.44;100.00;101765.38;4955867;28;20046;-74
2021/10/17 07:38:22;;;;;;;16.48;7.22;;;;;;;8.41;100.00;101758.56;4923276;29;20048;-74
2021/10/17 07:40:47;;;;;;;16.70;7.45;;;;;;;8.42;100.00;101762.91;4937312;29;20038;-74
2021/10/17 07:43:13;;;;;;;14.73;7.47;;;;;;;8.39;100.00;101755.25;4920920;28;20043;-75
2021/10/17 07:45:39;;;;;;;21.08;7.22;;;;;;;8.43;100.00;101761.94;4936013;28;20113;-75
2021/10/17 07:48:10;;;;;;;20.20;8.13;;;;;;;8.45;100.00;101761.84;4940238;28;20062;-75
2021/10/17 07:50:36;;;;;;;20.80;8.05;;;;;;;8.48;100.00;101762.47;4921414;29;20179;-72
2021/10/17 07:53:01;;;;;;;20.60;7.60;;;;;;;8.51;100.00;101769.25;4928033;28;20547;-75
2021/10/17 07:55:33;;;;;;;19.45;7.80;;;;;;;8.46;100.00;101782.66;4949558;28;20034;-75
2021/10/17 07:58:00;;;;;;;18.20;7.70;;;;;;;8.46;100.00;101780.03;4955235;28;20045;-74
2021/10/17 08:00:32;;;;;;;19.17;7.93;;;;;;;8.45;100.00;101778.38;4921595;28;20035;-73
2021/10/17 08:03:17;;;;;;;16.00;7.07;;;;;;;8.48;100.00;101793.03;4929182;28;20113;-74
2021/10/17 08:05:49;;;;;;;20.95;8.75;;;;;;;8.49;100.00;101781.59;4952419;28;20067;-76
2021/10/17 08:08:15;;;;;;;23.58;7.68;;;;;;;8.53;100.00;101790.91;4949763;28;20031;-75
2021/10/17 08:10:42;;;;;;;18.52;7.47;;;;;;;8.53;100.00;101780.44;4920434;29;20058;-74
2021/10/17 08:13:08;;;;;;;16.35;7.70;;;;;;;8.60;100.00;101793.94;4935975;28;20528;-71
2021/10/17 08:15:38;;;;;;;16.98;7.15;;;;;;;8.56;100.00;101786.28;4936850;28;20081;-75
2021/10/17 08:18:04;;;;;;;18.45;7.60;;;;;;;8.58;100.00;101787.00;4952697;28;20374;-73
2021/10/17 08:20:42;;;;;;;15.38;6.85;;;;;;;8.60;100.00;101789.53;4930976;28;20472;-75
2021/10/17 08:23:09;;;;;;;21.67;7.40;;;;;;;8.61;100.00;101788.59;4949866;28;20098;-74
2021/10/17 08:25:38;;;;;;;18.20;8.23;;;;;;;8.65;100.00;101794.44;4936932;28;20038;-75
2021/10/17 08:28:04;;;;;;;19.25;7.53;;;;;;;8.66;100.00;101790.88;4929811;28;20042;-73
2021/10/17 08:30:32;;;;;;;22.63;7.80;;;;;;;8.71;100.00;101788.78;4943781;28;20045;-74
2021/10/17 08:32:57;;;;;;;20.05;7.78;;;;;;;8.74;100.00;101791.19;4950352;28;20038;-75
2021/10/17 08:35:25;;;;;;;18.77;7.68;;;;;;;8.83;100.00;101795.75;4986760;28;20038;-75
2021/10/17 08:37:51;;;;;;;18.08;8.27;;;;;;;8.87;100.00;101791.13;4920351;29;20043;-75
2021/10/17 08:40:29;;;;;;;24.20;8.63;;;;;;;8.98;100.00;101798.22;4947192;28;20031;-75
2021/10/17 08:43:16;;;;;;;22.33;8.77;;;;;;;9.10;100.00;101802.56;4934646;29;20043;-74
2021/10/17 08:45:46;;;;;;;17.55;7.63;;;;;;;9.09;100.00;101809.56;4932952;28;20404;-73
2021/10/17 08:48:13;;;;;;;23.55;8.57;;;;;;;9.12;100.00;101811.16;4938175;28;20038;-75
2021/10/17 08:50:51;;;;;;;23.48;8.70;;;;;;;9.08;100.00;101807.91;4933638;28;20142;-74
2021/10/17 08:53:17;;;;;;;21.42;8.70;;;;;;;8.93;100.00;101806.41;4934674;28;20030;-74
2021/10/17 08:55:53;;;;;;;16.75;8.55;;;;;;;8.83;100.00;101808.81;4933787;28;20396;-73
2021/10/17 08:58:26;;;;;;;22.08;10.10;;;;;;;8.72;100.00;101814.84;4951982;28;20030;-74
2021/10/17 09:00:53;;;;;;;17.90;9.10;;;;;;;8.65;100.00;101813.59;4947053;28;20401;-75
2021/10/17 09:03:33;;;;;;;21.70;9.90;;;;;;;8.62;100.00;101813.78;4952813;28;20495;-72
2021/10/17 09:06:17;;;;;;;24.60;9.93;;;;;;;8.67;100.00;101819.53;4937474;28;20057;-74
2021/10/17 09:08:47;;;;;;;18.55;9.85;;;;;;;8.75;100.00;101814.59;4935045;29;20051;-73
2021/10/17 09:11:13;;;;;;;24.17;10.30;;;;;;;8.87;100.00;101810.31;4919079;29;20042;-74
2021/10/17 09:14:02;;;;;;;21.17;10.10;;;;;;;9.02;100.00;101813.56;4961374;28;20043;-73
2021/10/17 09:16:28;;;;;;;27.38;10.85;;;;;;;9.15;100.00;101817.00;4956968;28;20034;-75
2021/10/17 09:19:13;;;;;;;31.17;11.35;;;;;;;9.17;100.00;101811.63;4937186;28;20089;-74
2021/10/17 09:21:52;;;;;;;21.25;9.63;;;;;;;9.21;100.00;101804.41;4951080;28;20035;-74
2021/10/17 09:24:33;;;;;;;24.15;10.02;;;;;;;9.25;100.00;101805.84;4952348;28;20061;-74
2021/10/17 09:27:14;;;;;;;27.58;10.18;;;;;;;9.25;100.00;101801.47;4950782;28;20049;-74
2021/10/17 09:30:00;;;;;;;21.60;9.88;;;;;;;9.25;100.00;101795.38;4923036;28;20050;-75
2021/10/17 09:32:28;;;;;;;19.20;9.70;;;;;;;9.23;100.00;101802.50;4948459;28;20079;-74
2021/10/17 09:34:55;;;;;;;20.55;9.35;;;;;;;9.23;100.00;101802.50;4954629;28;20062;-72
2021/10/17 09:37:41;;;;;;;24.52;10.20;;;;;;;9.18;100.00;101802.03;4933891;29;20062;-74
2021/10/17 09:40:25;;;;;;;22.50;10.00;;;;;;;9.16;100.00;101807.38;4952089;28;20026;-76
2021/10/17 09:43:27;;;;;;;22.35;9.98;;;;;;;9.16;100.00;101809.97;4952010;28;20038;-74
2021/10/17 09:46:09;;;;;;;21.55;10.23;;;;;;;9.15;100.00;101814.38;4946154;28;20043;-76
2021/10/17 09:48:35;;;;;;;26.15;10.13;;;;;;;9.12;100.00;101800.69;4952533;28;20038;-72
2021/10/17 09:51:09;;;;;;;25.67;10.35;;;;;;;9.21;100.00;101804.41;4951653;28;20034;-71
2021/10/17 09:53:49;;;;;;;27.30;10.45;;;;;;;9.28;100.00;101803.00;4939361;28;20054;-72
2021/10/17 09:56:39;;;;;;;24.88;10.52;;;;;;;9.36;100.00;101808.50;4948782;28;20050;-72
2021/10/17 09:59:12;;;;;;;21.63;10.15;;;;;;;9.40;100.00;101817.84;4944993;28;20077;-71
2021/10/17 10:01:39;;;;;;;25.23;9.30;;;;;;;9.38;100.00;101808.41;4957312;28;20066;-74
2021/10/17 10:04:10;;;;;;;26.02;10.48;;;;;;;9.31;100.00;101808.84;4962199;28;20041;-73
2021/10/17 10:06:36;;;;;;;24.63;9.50;;;;;;;9.30;100.00;101806.34;4936995;28;20042;-74
2021/10/17 10:09:09;;;;;;;27.83;10.30;;;;;;;9.29;100.00;101799.47;4947925;28;20130;-74
2021/10/17 10:11:37;;;;;;;21.27;10.43;;;;;;;9.30;100.00;101809.78;4916430;28;20054;-74
2021/10/17 10:14:06;;;;;;;22.38;10.07;;;;;;;9.38;100.00;101803.16;4929117;28;20042;-74
2021/10/17 10:16:33;;;;;;;26.98;9.98;;;;;;;9.48;100.00;101805.00;4935956;28;20042;-75
2021/10/17 10:19:03;;;;;;;23.27;10.60;;;;;;;9.55;100.00;101800.97;4936470;28;20061;-74
2021/10/17 10:21:32;;;;;;;25.95;10.32;;;;;;;9.67;100.00;101814.94;4968880;28;20166;-74
2021/10/17 10:24:01;;;;;;;28.98;9.82;;;;;;;9.78;100.00;101810.72;4951273;28;20467;-74
2021/10/17 10:26:28;;;;;;;19.65;8.98;;;;;;;9.80;100.00;101814.03;4958748;28;20107;-73
2021/10/17 10:28:55;;;;;;;25.40;10.18;;;;;;;9.83;100.00;101817.28;4945150;28;20109;-75
2021/10/17 10:31:39;;;;;;;17.58;8.38;;;;;;;9.88;100.00;101815.13;4924394;28;20526;-74
2021/10/17 10:34:06;;;;;;;22.58;9.00;;;;;;;9.88;100.00;101801.19;4948474;28;20522;-72
2021/10/17 10:36:42;;;;;;;20.25;8.75;;;;;;;9.94;100.00;101811.19;4949876;28;20046;-74
2021/10/17 10:39:14;;;;;;;18.13;9.50;;;;;;;9.95;100.00;101812.88;4933564;28;20061;-72
2021/10/17 10:41:44;;;;;;;20.20;8.25;;;;;;;9.98;100.00;101809.19;4940798;28;20062;-72
2021/10/17 10:44:31;;;;;;;21.75;9.27;;;;;;;10.04;100.00;101816.56;4930806;28;20065;-72
2021/10/17 10:47:18;;;;;;;14.77;8.35;;;;;;;10.12;100.00;101816.84;4925967;28;20046;-74
2021/10/17 10:49:46;;;;;;;17.88;8.70;;;;;;;10.12;100.00;101817.66;4953605;28;20039;-73
2021/10/17 10:52:24;;;;;;;19.85;8.52;;;;;;;10.17;100.00;101817.34;4932214;28;20034;-73
2021/10/17 10:54:55;;;;;;;24.63;8.10;;;;;;;10.18;100.00;101816.38;4934159;28;20042;-74
2021/10/17 10:57:26;;;;;;;23.30;8.10;;;;;;;10.23;100.00;101814.22;4945838;28;20058;-75
2021/10/17 10:59:59;;;;;;;22.35;7.70;;;;;;;10.27;100.00;101810.41;4950435;28;20079;-74
2021/10/17 11:02:25;;;;;;;24.17;8.27;;;;;;;10.30;100.00;101817.19;4966625;28;20035;-73
2021/10/17 11:04:50;;;;;;;18.60;7.75;;;;;;;10.41;100.00;101813.78;4934555;28;20097;-74
2021/10/17 11:07:20;;;;;;;18.70;7.30;;;;;;;10.46;100.00;101815.09;4957769;28;20114;-76
2021/10/17 11:09:52;;;;;;;19.08;7.95;;;;;;;10.56;100.00;101811.75;4939392;28;20042;-72
2021/10/17 11:12:47;;;;;;;19.45;7.68;;;;;;;10.62;100.00;101824.38;4936548;28;20129;-76
2021/10/17 11:15:15;;;;;;;18.77;7.72;;;;;;;10.56;100.00;101822.25;4963456;28;20030;-75
2021/10/17 11:18:07;;;;;;;19.88;7.45;;;;;;;10.59;100.00;101820.22;4938862;28;20047;-75
2021/10/17 11:20:37;;;;;;;18.50;7.10;;;;;;;10.61;100.00;101827.97;4970928;28;20039;-76
2021/10/17 11:23:05;;;;;;;17.65;7.43;;;;;;;10.54;100.00;101814.50;4951058;28;20396;-76
2021/10/17 11:25:31;;;;;;;17.60;7.55;;;;;;;10.54;100.00;101829.41;4949619;28;20058;-74